Time,TemperatureF,DewpointF,PressureIn,WindDirection,WindDirectionDegrees,WindSpeedMPH,WindSpeedGustMPH,Humidity,HourlyPrecipIn,Conditions,Clouds,dailyrainin,SoftwareType,DateUTC
2013-04-30 00:00:00,26.3,24.3,30.13,North,0,0.0,0.0,92,0.00,CLR,,0.00,WeatherDisplay:10.37,2013-04-30 08:00:00,
2013-04-30 00:10:00,26.4,24.4,30.13,North,0,0.0,0.0,92,0.00,CLR,,0.00,WeatherDisplay:10.37,2013-04-30 08:10:00,
2013-04-30 00:15:00,26.5,24.5,30.13,North,0,0.0,0.0,92,0.00,CLR,,0.00,WeatherDisplay:10.37,2013-04-30 08:15:00,
2013-04-30 00:20:00,26.6,25.1,30.13,North,0,0.0,0.0,94,0.00,CLR,,0.00,WeatherDisplay:10.37,2013-04-30 08:20:00,
2013-04-30 00:25:00,26.6,24.1,30.13,North,0,0.0,0.0,90,0.00,CLR,,0.00,WeatherDisplay:10.37,2013-04-30 08:25:00,
2013-04-30 00:30:00,26.4,24.4,30.13,North,0,0.0,0.0,92,0.00,CLR,,0.00,WeatherDisplay:10.37,2013-04-30 08:30:00,
2013-04-30 00:40:00,26.4,24.4,30.13,North,0,0.0,0.0,92,0.00,CLR,,0.00,WeatherDisplay:10.37,2013-04-30 08:40:00,
2013-04-30 00:45:00,26.2,24.0,30.13,North,0,0.0,0.0,91,0.00,CLR,,0.00,WeatherDisplay:10.37,2013-04-30 08:45:00,
2013-04-30 00:50:00,26.1,24.3,30.13,North,0,0.0,0.0,93,0.00,CLR,,0.00,WeatherDisplay:10.37,2013-04-30 08:50:00,
2013-04-30 00:55:00,26.1,22.7,30.13,North,0,0.0,0.0,87,0.00,CLR,,0.00,WeatherDisplay:10.37,2013-04-30 08:55:00,
2013-04-30 01:00:00,25.9,23.6,30.13,North,0,0.0,0.0,91,0.00,CLR,,0.00,WeatherDisplay:10.37,2013-04-30 09:00:00,
2013-04-30 01:15:00,25.7,22.6,30.13,North,0,0.0,0.0,88,0.00,CLR,,0.00,WeatherDisplay:10.37,2013-04-30 09:15:00,
2013-04-30 01:20:00,25.5,24.5,30.13,North,0,0.0,0.0,96,0.00,CLR,,0.00,WeatherDisplay:10.37,2013-04-30 09:20:00,
2013-04-30 01:25:00,25.5,22.7,30.13,SSE,151,0.0,0.0,89,0.00,CLR,,0.00,WeatherDisplay:10.37,2013-04-30 09:25:00,
2013-04-30 01:30:00,25.5,23.3,30.13,South,176,0.0,0.0,91,0.00,CLR,,0.00,WeatherDisplay:10.37,2013-04-30 09:30:00,
2013-04-30 01:40:00,25.5,23.5,30.13,ESE,116,0.0,0.0,92,0.00,CLR,,0.00,WeatherDisplay:10.37,2013-04-30 09:40:00,
2013-04-30 01:45:00,25.5,23.3,30.13,ENE,74,0.0,0.0,91,0.00,CLR,,0.00,WeatherDisplay:10.37,2013-04-30 09:45:00,
2013-04-30 01:50:00,25.7,22.6,30.13,NE,55,0.0,0.0,88,0.00,CLR,,0.00,WeatherDisplay:10.37,2013-04-30 09:50:00,
2013-04-30 01:55:00,25.8,23.8,30.13,East,95,0.0,0.0,92,0.00,CLR,,0.00,WeatherDisplay:10.37,2013-04-30 09:55:00,
2013-04-30 02:00:00,25.9,24.4,30.12,ESE,106,0.0,0.0,94,0.00,CLR,,0.00,WeatherDisplay:10.37,2013-04-30 10:00:00,
2013-04-30 02:10:00,25.9,23.4,30.13,ENE,77,0.0,0.0,90,0.00,CLR,,0.00,WeatherDisplay:10.37,2013-04-30 10:10:00,
2013-04-30 02:15:00,25.8,23.8,30.13,East,87,0.0,0.0,92,0.00,CLR,,0.00,WeatherDisplay:10.37,2013-04-30 10:15:00,
2013-04-30 02:25:00,25.8,23.8,30.12,ENE,75,0.0,0.0,92,0.00,CLR,,0.00,WeatherDisplay:10.37,2013-04-30 10:25:00,
2013-04-30 02:30:00,25.7,22.6,30.12,ENE,78,0.0,0.0,88,0.00,CLR,,0.00,WeatherDisplay:10.37,2013-04-30 10:30:00,
2013-04-30 02:40:00,25.5,23.5,30.12,ENE,72,0.0,0.0,92,0.00,CLR,,0.00,WeatherDisplay:10.37,2013-04-30 10:40:00,
2013-04-30 02:45:00,25.5,23.5,30.11,ENE,63,0.0,0.0,92,0.00,CLR,,0.00,WeatherDisplay:10.37,2013-04-30 10:45:00,
2013-04-30 02:55:00,25.5,24.8,30.11,ENE,71,0.0,0.0,97,0.00,CLR,,0.00,WeatherDisplay:10.37,2013-04-30 10:55:00,
2013-04-30 03:00:00,25.5,23.8,30.11,ENE,60,0.0,0.0,93,0.00,CLR,,0.00,WeatherDisplay:10.37,2013-04-30 11:00:00,
2013-04-30 03:05:00,25.5,23.3,30.11,ENE,69,0.0,0.0,91,0.00,CLR,,0.00,WeatherDisplay:10.37,2013-04-30 11:05:00,
2013-04-30 03:10:00,25.5,23.8,30.11,NE,44,0.0,0.0,93,0.00,CLR,,0.00,WeatherDisplay:10.37,2013-04-30 11:10:00,
2013-04-30 03:15:00,25.5,23.8,30.11,East,81,0.0,0.0,93,0.00,CLR,,0.00,WeatherDisplay:10.37,2013-04-30 11:15:00,
2013-04-30 03:25:00,25.7,24.0,30.11,East,81,0.0,0.0,93,0.00,CLR,,0.00,WeatherDisplay:10.37,2013-04-30 11:25:00,
2013-04-30 03:30:00,25.7,23.2,30.11,ENE,73,0.0,0.0,90,0.00,CLR,,0.00,WeatherDisplay:10.37,2013-04-30 11:30:00,
2013-04-30 03:35:00,25.7,24.0,30.11,NE,51,0.0,0.0,93,0.00,CLR,,0.00,WeatherDisplay:10.37,2013-04-30 11:35:00,
2013-04-30 03:45:00,25.7,23.7,30.11,ENE,62,0.0,0.0,92,0.00,CLR,,0.00,WeatherDisplay:10.37,2013-04-30 11:45:00,
2013-04-30 03:55:00,25.9,24.1,30.10,East,86,0.0,0.0,93,0.00,CLR,,0.00,WeatherDisplay:10.37,2013-04-30 11:55:00,
2013-04-30 04:00:00,25.7,24.0,30.10,ESE,102,0.0,0.0,93,0.00,CLR,,0.00,WeatherDisplay:10.37,2013-04-30 12:00:00,
2013-04-30 04:05:00,25.7,24.0,30.10,ENE,78,0.0,0.0,93,0.00,CLR,,0.00,WeatherDisplay:10.37,2013-04-30 12:05:00,
2013-04-30 04:10:00,25.7,24.7,30.10,East,79,0.0,0.0,96,0.00,CLR,,0.00,WeatherDisplay:10.37,2013-04-30 12:10:00,
2013-04-30 04:15:00,25.7,24.2,30.10,East,82,0.0,0.0,94,0.00,CLR,,0.00,WeatherDisplay:10.37,2013-04-30 12:15:00,
2013-04-30 04:25:00,25.5,24.0,30.09,ENE,65,0.0,0.0,94,0.00,CLR,,0.00,WeatherDisplay:10.37,2013-04-30 12:25:00,
2013-04-30 04:30:00,25.5,24.0,30.09,ENE,60,0.0,0.0,94,0.00,CLR,,0.00,WeatherDisplay:10.37,2013-04-30 12:30:00,
2013-04-30 04:35:00,25.5,23.5,30.09,ENE,58,0.0,0.0,92,0.00,CLR,,0.00,WeatherDisplay:10.37,2013-04-30 12:35:00,
2013-04-30 04:40:00,25.5,24.0,30.09,ESE,122,0.0,0.0,94,0.00,CLR,,0.00,WeatherDisplay:10.37,2013-04-30 12:40:00,
2013-04-30 04:45:00,25.5,23.5,30.09,ESE,102,0.0,0.0,92,0.00,CLR,,0.00,WeatherDisplay:10.37,2013-04-30 12:45:00,
2013-04-30 04:50:00,25.5,24.3,30.08,East,79,0.0,0.0,95,0.00,CLR,,0.00,WeatherDisplay:10.37,2013-04-30 12:50:00,
2013-04-30 04:55:00,25.5,23.8,30.08,ENE,74,0.0,0.0,93,0.00,CLR,,0.00,WeatherDisplay:10.37,2013-04-30 12:55:00,
2013-04-30 05:00:00,25.5,23.5,30.08,East,92,0.0,0.0,92,0.00,CLR,,0.00,WeatherDisplay:10.37,2013-04-30 13:00:00,
2013-04-30 05:10:00,25.5,23.8,30.08,ENE,75,0.0,0.0,93,0.00,CLR,,0.00,WeatherDisplay:10.37,2013-04-30 13:10:00,
2013-04-30 05:15:00,25.5,24.0,30.08,East,85,0.0,0.0,94,0.00,CLR,,0.00,WeatherDisplay:10.37,2013-04-30 13:15:00,
2013-04-30 05:25:00,25.5,23.8,30.08,ENE,61,0.0,0.0,93,0.00,CLR,,0.00,WeatherDisplay:10.37,2013-04-30 13:25:00,
2013-04-30 05:30:00,25.5,24.0,30.08,ENE,60,0.0,0.0,94,0.00,CLR,,0.00,WeatherDisplay:10.37,2013-04-30 13:30:00,
2013-04-30 05:40:00,25.5,23.8,30.08,ENE,62,0.0,0.0,93,0.00,CLR,,0.00,WeatherDisplay:10.37,2013-04-30 13:40:00,
2013-04-30 05:45:00,25.5,24.0,30.08,East,83,0.0,0.0,94,0.00,CLR,,0.00,WeatherDisplay:10.37,2013-04-30 13:45:00,
2013-04-30 05:55:00,25.5,23.5,30.07,ENE,70,0.0,0.0,92,0.00,CLR,,0.00,WeatherDisplay:10.37,2013-04-30 13:55:00,
2013-04-30 06:00:00,25.5,24.3,30.07,East,91,0.0,0.0,95,0.00,CLR,,0.00,WeatherDisplay:10.37,2013-04-30 14:00:00,
2013-04-30 06:05:00,25.5,23.8,30.07,ESE,104,0.0,0.0,93,0.00,CLR,,0.00,WeatherDisplay:10.37,2013-04-30 14:05:00,
2013-04-30 06:10:00,25.5,24.0,30.07,East,97,0.0,0.0,94,0.00,CLR,,0.00,WeatherDisplay:10.37,2013-04-30 14:10:00,
2013-04-30 06:15:00,25.5,23.5,30.07,East,88,0.0,0.0,92,0.00,CLR,,0.00,WeatherDisplay:10.37,2013-04-30 14:15:00,
2013-04-30 06:25:00,25.7,24.2,30.07,East,96,0.0,0.0,94,0.00,CLR,,0.00,WeatherDisplay:10.37,2013-04-30 14:25:00,
2013-04-30 06:30:00,25.8,24.3,30.07,ESE,118,0.0,0.0,94,0.00,CLR,,0.00,WeatherDisplay:10.37,2013-04-30 14:30:00,
2013-04-30 06:40:00,25.7,24.0,30.07,ESE,116,0.0,0.0,93,0.00,CLR,,0.00,WeatherDisplay:10.37,2013-04-30 14:40:00,
2013-04-30 06:45:00,25.8,24.3,30.07,SE,124,0.0,0.0,94,0.00,CLR,,0.00,WeatherDisplay:10.37,2013-04-30 14:45:00,
2013-04-30 06:50:00,25.9,24.4,30.06,ESE,110,0.0,0.0,94,0.00,CLR,,0.00,WeatherDisplay:10.37,2013-04-30 14:50:00,
2013-04-30 06:55:00,25.9,24.1,30.07,ENE,74,0.0,0.0,93,0.00,CLR,,0.00,WeatherDisplay:10.37,2013-04-30 14:55:00,
2013-04-30 07:00:00,25.9,24.6,30.06,East,80,0.0,0.0,95,0.00,CLR,,0.00,WeatherDisplay:10.37,2013-04-30 15:00:00,
2013-04-30 07:05:00,25.9,24.4,30.06,East,98,0.0,0.0,94,0.00,CLR,,0.00,WeatherDisplay:10.37,2013-04-30 15:05:00,
2013-04-30 07:10:00,25.9,24.4,30.06,East,101,0.0,0.0,94,0.00,CLR,,0.00,WeatherDisplay:10.37,2013-04-30 15:10:00,
2013-04-30 07:15:00,26.1,24.6,30.06,ESE,103,0.0,0.0,94,0.00,CLR,,0.00,WeatherDisplay:10.37,2013-04-30 15:15:00,
2013-04-30 07:25:00,26.1,24.6,30.06,East,83,0.0,0.0,94,0.00,CLR,,0.00,WeatherDisplay:10.37,2013-04-30 15:25:00,
2013-04-30 07:30:00,26.1,24.6,30.06,East,94,0.0,0.0,94,0.00,CLR,,0.00,WeatherDisplay:10.37,2013-04-30 15:30:00,
2013-04-30 07:35:00,26.2,24.5,30.06,East,80,0.0,0.0,93,0.00,CLR,,0.00,WeatherDisplay:10.37,2013-04-30 15:35:00,
2013-04-30 07:40:00,26.4,24.4,30.06,ENE,57,0.0,0.0,92,0.00,CLR,,0.00,WeatherDisplay:10.37,2013-04-30 15:40:00,
2013-04-30 07:45:00,26.4,24.4,30.06,NE,47,0.0,0.0,92,0.00,CLR,,0.00,WeatherDisplay:10.37,2013-04-30 15:45:00,
2013-04-30 07:50:00,26.4,24.7,30.06,NE,54,0.0,0.0,93,0.00,CLR,,0.00,WeatherDisplay:10.37,2013-04-30 15:50:00,
2013-04-30 07:55:00,26.4,24.7,30.06,ENE,61,0.0,0.0,93,0.00,CLR,,0.00,WeatherDisplay:10.37,2013-04-30 15:55:00,
2013-04-30 08:00:00,26.7,24.9,30.06,ENE,75,0.0,0.0,93,0.00,CLR,,0.00,WeatherDisplay:10.37,2013-04-30 16:00:00,
2013-04-30 08:10:00,27.0,24.9,30.06,ESE,103,0.0,0.0,92,0.00,CLR,,0.00,WeatherDisplay:10.37,2013-04-30 16:10:00,
2013-04-30 08:15:00,27.0,24.9,30.06,East,94,0.0,0.0,92,0.00,CLR,,0.00,WeatherDisplay:10.37,2013-04-30 16:15:00,
2013-04-30 08:20:00,27.1,25.1,30.06,ESE,122,0.0,0.0,92,0.00,CLR,,0.00,WeatherDisplay:10.37,2013-04-30 16:20:00,
2013-04-30 08:25:00,27.3,25.6,30.06,East,84,0.0,0.0,93,0.00,CLR,,0.00,WeatherDisplay:10.37,2013-04-30 16:25:00,
2013-04-30 08:30:00,27.3,24.8,30.06,East,81,0.0,0.0,90,0.00,CLR,,0.00,WeatherDisplay:10.37,2013-04-30 16:30:00,
2013-04-30 08:35:00,27.7,25.1,30.06,ENE,77,0.0,0.0,90,0.00,CLR,,0.00,WeatherDisplay:10.37,2013-04-30 16:35:00,
2013-04-30 08:40:00,27.7,25.7,30.06,ESE,108,0.0,0.0,92,0.00,CLR,,0.00,WeatherDisplay:10.37,2013-04-30 16:40:00,
2013-04-30 08:45:00,27.7,25.9,30.06,ESE,110,0.0,0.0,93,0.00,CLR,,0.00,WeatherDisplay:10.37,2013-04-30 16:45:00,
2013-04-30 08:55:00,27.7,26.0,30.05,ESE,107,0.0,0.0,93,0.00,CLR,,0.00,WeatherDisplay:10.37,2013-04-30 16:55:00,
2013-04-30 09:00:00,27.8,25.8,30.05,ESE,107,0.0,0.0,92,0.00,CLR,,0.00,WeatherDisplay:10.37,2013-04-30 17:00:00,
2013-04-30 09:10:00,28.2,26.2,30.05,East,79,0.0,0.0,92,0.00,CLR,,0.00,WeatherDisplay:10.37,2013-04-30 17:10:00,
2013-04-30 09:15:00,28.6,26.6,30.05,ESE,104,0.0,0.0,92,0.00,CLR,,0.00,WeatherDisplay:10.37,2013-04-30 17:15:00,
2013-04-30 09:25:00,29.1,26.6,30.05,ENE,73,0.0,0.0,90,0.00,CLR,,0.00,WeatherDisplay:10.37,2013-04-30 17:25:00,
2013-04-30 09:30:00,29.5,27.2,30.05,East,85,0.0,0.0,91,0.00,CLR,,0.00,WeatherDisplay:10.37,2013-04-30 17:30:00,
2013-04-30 09:35:00,29.5,27.2,30.05,East,80,0.0,0.0,91,0.00,CLR,,0.00,WeatherDisplay:10.37,2013-04-30 17:35:00,
2013-04-30 09:40:00,29.7,27.1,30.04,East,79,0.0,0.0,90,0.00,CLR,,0.00,WeatherDisplay:10.37,2013-04-30 17:40:00,
2013-04-30 09:45:00,29.5,26.6,30.04,ENE,75,1.0,0.0,89,0.00,CLR,,0.00,WeatherDisplay:10.37,2013-04-30 17:45:00,
2013-04-30 09:50:00,29.6,27.8,30.04,East,99,1.0,0.0,93,0.00,CLR,,0.00,WeatherDisplay:10.37,2013-04-30 17:50:00,
2013-04-30 09:55:00,30.1,28.3,30.04,ESE,102,1.0,0.0,93,0.00,CLR,,0.00,WeatherDisplay:10.37,2013-04-30 17:55:00,
2013-04-30 10:00:00,30.6,28.2,30.04,ESE,106,0.0,0.0,91,0.00,CLR,,0.00,WeatherDisplay:10.37,2013-04-30 18:00:00,
2013-04-30 10:10:00,31.6,29.0,30.04,ESE,111,0.0,0.0,90,0.00,CLR,,0.00,WeatherDisplay:10.37,2013-04-30 18:10:00,
2013-04-30 10:15:00,31.9,29.3,30.04,ESE,116,0.0,0.0,90,0.00,CLR,,0.00,WeatherDisplay:10.37,2013-04-30 18:15:00,
2013-04-30 10:25:00,32.5,29.7,30.04,SE,139,2.0,0.0,89,0.00,CLR,,0.00,WeatherDisplay:10.37,2013-04-30 18:25:00,
2013-04-30 10:30:00,32.7,29.6,30.04,ESE,113,0.0,0.0,88,0.00,CLR,,0.00,WeatherDisplay:10.37,2013-04-30 18:30:00,
2013-04-30 10:40:00,33.0,29.8,30.04,ESE,118,0.0,0.0,88,0.00,CLR,,0.00,WeatherDisplay:10.37,2013-04-30 18:40:00,
2013-04-30 10:45:00,33.2,29.4,30.04,ESE,113,2.0,0.0,86,0.00,CLR,,0.00,WeatherDisplay:10.37,2013-04-30 18:45:00,
2013-04-30 10:50:00,33.3,29.8,30.04,ESE,117,1.0,0.0,87,0.00,CLR,,0.00,WeatherDisplay:10.37,2013-04-30 18:50:00,
2013-04-30 10:55:00,33.6,30.2,30.04,SSE,149,0.0,0.0,87,0.00,CLR,,0.00,WeatherDisplay:10.37,2013-04-30 18:55:00,
2013-04-30 11:00:00,33.6,30.2,30.04,SE,127,2.0,0.0,87,0.00,CLR,,0.00,WeatherDisplay:10.37,2013-04-30 19:00:00,
2013-04-30 11:05:00,33.4,30.0,30.04,ENE,77,0.0,0.0,87,0.00,CLR,,0.00,WeatherDisplay:10.37,2013-04-30 19:05:00,
2013-04-30 11:10:00,33.4,30.0,30.03,East,92,2.0,0.0,87,0.00,CLR,,0.00,WeatherDisplay:10.37,2013-04-30 19:10:00,
2013-04-30 11:15:00,33.6,29.9,30.03,ESE,120,0.0,0.0,86,0.00,CLR,,0.00,WeatherDisplay:10.37,2013-04-30 19:15:00,
2013-04-30 11:25:00,35.0,30.3,30.03,SSE,153,0.0,0.0,83,0.00,CLR,,0.00,WeatherDisplay:10.37,2013-04-30 19:25:00,
2013-04-30 11:30:00,35.2,31.2,30.03,SE,145,1.0,0.0,85,0.00,CLR,,0.00,WeatherDisplay:10.37,2013-04-30 19:30:00,
2013-04-30 11:40:00,35.1,30.4,30.03,ESE,110,1.0,0.0,83,0.00,CLR,,0.00,WeatherDisplay:10.37,2013-04-30 19:40:00,
2013-04-30 11:45:00,35.2,30.9,30.03,ESE,104,2.0,0.0,84,0.00,CLR,,0.00,WeatherDisplay:10.37,2013-04-30 19:45:00,
2013-04-30 11:55:00,34.6,29.0,30.03,ENE,78,0.0,0.0,80,0.00,CLR,,0.00,WeatherDisplay:10.37,2013-04-30 19:55:00,
2013-04-30 12:00:00,34.2,30.4,30.03,ESE,120,0.0,0.0,86,0.00,CLR,,0.00,WeatherDisplay:10.37,2013-04-30 20:00:00,
2013-04-30 12:05:00,33.7,30.5,30.03,SSE,155,0.0,0.0,88,0.00,CLR,,0.00,WeatherDisplay:10.37,2013-04-30 20:05:00,
2013-04-30 12:10:00,34.3,29.7,30.03,SE,141,1.0,0.0,83,0.00,CLR,,0.00,WeatherDisplay:10.37,2013-04-30 20:10:00,
2013-04-30 12:15:00,34.5,30.5,30.03,SE,137,0.0,0.0,85,0.00,CLR,,0.00,WeatherDisplay:10.37,2013-04-30 20:15:00,
2013-04-30 12:25:00,34.5,30.5,30.03,ESE,105,0.0,0.0,85,0.00,CLR,,0.00,WeatherDisplay:10.37,2013-04-30 20:25:00,
2013-04-30 12:30:00,34.3,30.3,30.03,ESE,120,0.0,0.0,85,0.00,CLR,,0.00,WeatherDisplay:10.37,2013-04-30 20:30:00,
2013-04-30 12:35:00,34.3,30.6,30.03,SSE,148,0.0,0.0,86,0.00,CLR,,0.00,WeatherDisplay:10.37,2013-04-30 20:35:00,
2013-04-30 12:40:00,34.0,29.7,30.03,SSE,162,0.0,0.0,84,0.00,CLR,,0.00,WeatherDisplay:10.37,2013-04-30 20:40:00,
2013-04-30 12:45:00,34.0,29.9,30.03,SSE,157,0.0,0.0,85,0.00,CLR,,0.00,WeatherDisplay:10.37,2013-04-30 20:45:00,
2013-04-30 12:55:00,34.4,30.4,30.03,SE,141,0.0,0.0,85,0.00,CLR,,0.00,WeatherDisplay:10.37,2013-04-30 20:55:00,
2013-04-30 13:00:00,34.4,30.7,30.02,SE,137,2.0,0.0,86,0.00,CLR,,0.00,WeatherDisplay:10.37,2013-04-30 21:00:00,
2013-04-30 13:10:00,34.5,30.5,30.02,ESE,114,0.0,0.0,85,0.00,CLR,,0.00,WeatherDisplay:10.37,2013-04-30 21:10:00,
2013-04-30 13:15:00,34.8,30.8,30.02,ESE,116,0.0,0.0,85,0.00,CLR,,0.00,WeatherDisplay:10.37,2013-04-30 21:15:00,
2013-04-30 13:20:00,34.5,29.6,30.02,East,97,3.0,0.0,82,0.00,CLR,,0.00,WeatherDisplay:10.37,2013-04-30 21:20:00,
2013-04-30 13:25:00,34.8,30.7,30.02,ESE,115,1.0,0.0,85,0.00,CLR,,0.00,WeatherDisplay:10.37,2013-04-30 21:25:00,
2013-04-30 13:30:00,35.2,30.8,30.02,SE,124,2.0,0.0,84,0.00,CLR,,0.00,WeatherDisplay:10.37,2013-04-30 21:30:00,
2013-04-30 13:40:00,36.3,31.9,30.02,East,80,2.0,0.0,84,0.00,CLR,,0.00,WeatherDisplay:10.37,2013-04-30 21:40:00,
2013-04-30 13:45:00,37.3,32.0,30.02,East,98,0.0,0.0,81,0.00,CLR,,0.00,WeatherDisplay:10.37,2013-04-30 21:45:00,
2013-04-30 13:50:00,38.5,32.8,30.02,SE,124,0.0,0.0,80,0.00,CLR,,0.00,WeatherDisplay:10.37,2013-04-30 21:50:00,
2013-04-30 13:55:00,38.1,32.5,30.01,SE,124,1.0,0.0,80,0.00,CLR,,0.00,WeatherDisplay:10.37,2013-04-30 21:55:00,
2013-04-30 14:00:00,37.9,32.3,30.01,ESE,122,3.0,0.0,80,0.00,CLR,,0.00,WeatherDisplay:10.37,2013-04-30 22:00:00,
2013-04-30 14:05:00,37.9,32.2,30.01,ESE,103,0.0,0.0,80,0.00,CLR,,0.00,WeatherDisplay:10.37,2013-04-30 22:05:00,
2013-04-30 14:10:00,37.5,32.2,30.01,East,94,2.0,0.0,81,0.00,CLR,,0.00,WeatherDisplay:10.37,2013-04-30 22:10:00,
2013-04-30 14:15:00,37.0,31.4,30.01,East,97,0.0,0.0,80,0.00,CLR,,0.00,WeatherDisplay:10.37,2013-04-30 22:15:00,
2013-04-30 14:25:00,36.7,30.1,30.01,SE,125,2.0,0.0,77,0.00,CLR,,0.00,WeatherDisplay:10.37,2013-04-30 22:25:00,
2013-04-30 14:30:00,37.0,31.1,30.01,SE,126,0.0,0.0,79,0.00,CLR,,0.00,WeatherDisplay:10.37,2013-04-30 22:30:00,
2013-04-30 14:40:00,37.3,31.1,30.00,South,176,0.0,0.0,78,0.00,CLR,,0.00,WeatherDisplay:10.37,2013-04-30 22:40:00,
2013-04-30 14:45:00,37.1,30.3,30.00,SE,134,0.0,0.0,76,0.00,CLR,,0.00,WeatherDisplay:10.37,2013-04-30 22:45:00,
2013-04-30 14:55:00,36.3,29.8,30.00,SE,138,0.0,0.0,77,0.00,CLR,,0.00,WeatherDisplay:10.37,2013-04-30 22:55:00,
2013-04-30 15:00:00,35.7,28.9,30.00,ESE,105,0.0,0.0,76,0.00,CLR,,0.00,WeatherDisplay:10.37,2013-04-30 23:00:00,
2013-04-30 15:05:00,35.2,28.8,30.00,ESE,117,0.0,0.0,77,0.00,CLR,,0.00,WeatherDisplay:10.37,2013-04-30 23:05:00,
2013-04-30 15:10:00,35.1,29.5,30.00,SE,134,0.0,0.0,80,0.00,CLR,,0.00,WeatherDisplay:10.37,2013-04-30 23:10:00,
2013-04-30 15:15:00,34.8,28.6,30.00,ESE,122,0.0,0.0,78,0.00,CLR,,0.00,WeatherDisplay:10.37,2013-04-30 23:15:00,
2013-04-30 15:20:00,34.4,28.6,30.00,East,98,0.0,0.0,79,0.00,CLR,,0.00,WeatherDisplay:10.37,2013-04-30 23:20:00,
2013-04-30 15:25:00,34.3,29.1,30.00,East,91,0.0,0.0,81,0.00,CLR,,0.00,WeatherDisplay:10.37,2013-04-30 23:25:00,
2013-04-30 15:30:00,34.0,29.1,30.00,WNW,285,0.0,0.0,82,0.00,CLR,,0.00,WeatherDisplay:10.37,2013-04-30 23:30:00,
2013-04-30 15:40:00,33.2,28.6,30.00,WNW,296,0.0,0.0,83,0.00,CLR,,0.00,WeatherDisplay:10.37,2013-04-30 23:40:00,
2013-04-30 15:45:00,33.1,28.5,29.99,West,281,0.0,0.0,83,0.00,CLR,,0.00,WeatherDisplay:10.37,2013-04-30 23:45:00,
2013-04-30 15:50:00,33.1,29.1,29.99,West,268,0.0,0.0,85,0.00,CLR,,0.00,WeatherDisplay:10.37,2013-04-30 23:50:00,
2013-04-30 15:55:00,32.7,29.3,29.99,West,279,0.0,0.0,87,0.00,CLR,,0.00,WeatherDisplay:10.37,2013-04-30 23:55:00,
2013-04-30 16:00:00,32.7,29.3,29.99,West,277,0.0,0.0,87,0.00,CLR,,0.00,WeatherDisplay:10.37,2013-05-01 00:00:00,
2013-04-30 16:10:00,33.4,30.2,29.99,West,264,0.0,0.0,88,0.00,CLR,,0.00,WeatherDisplay:10.37,2013-05-01 00:10:00,
2013-04-30 16:15:00,33.6,30.2,29.99,West,272,0.0,0.0,87,0.00,CLR,,0.00,WeatherDisplay:10.37,2013-05-01 00:15:00,
2013-04-30 16:20:00,33.6,29.6,29.99,NW,306,0.0,0.0,85,0.00,CLR,,0.00,WeatherDisplay:10.37,2013-05-01 00:20:00,
2013-04-30 16:25:00,33.4,29.1,29.99,NNW,338,0.0,0.0,84,0.00,CLR,,0.00,WeatherDisplay:10.37,2013-05-01 00:25:00,
2013-04-30 16:30:00,33.3,29.2,29.99,WNW,290,0.0,0.0,85,0.00,CLR,,0.00,WeatherDisplay:10.37,2013-05-01 00:30:00,
2013-04-30 16:40:00,32.5,29.1,29.99,WNW,282,0.0,0.0,87,0.00,CLR,,0.00,WeatherDisplay:10.37,2013-05-01 00:40:00,
2013-04-30 16:45:00,32.7,29.0,29.98,NW,318,0.0,0.0,86,0.00,CLR,,0.00,WeatherDisplay:10.37,2013-05-01 00:45:00,
2013-04-30 16:50:00,33.1,29.6,29.99,NW,311,0.0,0.0,87,0.00,CLR,,0.00,WeatherDisplay:10.37,2013-05-01 00:50:00,
2013-04-30 16:55:00,33.4,30.3,29.98,West,280,0.0,0.0,88,0.00,CLR,,0.00,WeatherDisplay:10.37,2013-05-01 00:55:00,
2013-04-30 17:00:00,33.6,30.2,29.98,West,266,0.0,0.0,87,0.00,CLR,,0.00,WeatherDisplay:10.37,2013-05-01 01:00:00,
2013-04-30 17:05:00,34.0,30.5,29.98,WSW,243,0.0,0.0,87,0.00,CLR,,0.00,WeatherDisplay:10.37,2013-05-01 01:05:00,
2013-04-30 17:10:00,34.0,31.4,29.98,SW,236,0.0,0.0,90,0.00,CLR,,0.00,WeatherDisplay:10.37,2013-05-01 01:10:00,
2013-04-30 17:15:00,33.6,31.0,29.98,WSW,246,0.0,0.0,90,0.00,CLR,,0.00,WeatherDisplay:10.37,2013-05-01 01:15:00,
2013-04-30 17:25:00,33.1,30.7,29.98,WSW,243,0.0,0.0,91,0.00,CLR,,0.00,WeatherDisplay:10.37,2013-05-01 01:25:00,
2013-04-30 17:30:00,33.3,31.0,29.98,SW,233,0.0,0.0,91,0.00,CLR,,0.00,WeatherDisplay:10.37,2013-05-01 01:30:00,
2013-04-30 17:40:00,34.0,31.6,29.98,WSW,241,0.0,0.0,91,0.00,CLR,,0.00,WeatherDisplay:10.37,2013-05-01 01:40:00,
2013-04-30 17:45:00,34.5,31.6,29.98,WSW,237,0.0,0.0,89,0.00,CLR,,0.00,WeatherDisplay:10.37,2013-05-01 01:45:00,
2013-04-30 17:50:00,34.9,32.5,29.98,SW,231,0.0,0.0,91,0.00,CLR,,0.00,WeatherDisplay:10.37,2013-05-01 01:50:00,
2013-04-30 18:00:00,34.5,31.9,29.97,WSW,241,0.0,0.0,90,0.00,CLR,,0.00,WeatherDisplay:10.37,2013-05-01 02:00:00,
2013-04-30 18:05:00,34.4,31.8,29.97,WSW,243,0.0,0.0,90,0.00,CLR,,0.00,WeatherDisplay:10.37,2013-05-01 02:05:00,
2013-04-30 18:15:00,34.6,31.7,29.97,SW,231,0.0,0.0,89,0.00,CLR,,0.00,WeatherDisplay:10.37,2013-05-01 02:15:00,
2013-04-30 18:25:00,34.9,32.0,29.97,WSW,249,0.0,0.0,89,0.00,CLR,,0.00,WeatherDisplay:10.37,2013-05-01 02:25:00,
2013-04-30 18:30:00,34.5,31.3,29.96,WSW,253,0.0,0.0,88,0.00,CLR,,0.00,WeatherDisplay:10.37,2013-05-01 02:30:00,
2013-04-30 18:40:00,34.9,32.0,29.96,SSW,199,0.0,0.0,89,0.00,CLR,,0.00,WeatherDisplay:10.37,2013-05-01 02:40:00,
2013-04-30 18:45:00,35.0,31.8,29.96,SSW,207,0.0,0.0,88,0.00,CLR,,0.00,WeatherDisplay:10.37,2013-05-01 02:45:00,
2013-04-30 18:50:00,34.9,31.7,29.96,SW,217,0.0,0.0,88,0.00,CLR,,0.00,WeatherDisplay:10.37,2013-05-01 02:50:00,
2013-04-30 18:55:00,34.9,31.4,29.96,WSW,242,0.0,0.0,87,0.00,CLR,,0.00,WeatherDisplay:10.37,2013-05-01 02:55:00,
2013-04-30 19:00:00,34.7,30.9,29.96,North,1,0.0,0.0,86,0.00,CLR,,0.00,WeatherDisplay:10.37,2013-05-01 03:00:00,
2013-04-30 19:05:00,34.5,30.2,29.96,NE,42,2.0,0.0,84,0.00,CLR,,0.00,WeatherDisplay:10.37,2013-05-01 03:05:00,
2013-04-30 19:10:00,34.3,30.0,29.96,NE,38,0.0,0.0,84,0.00,CLR,,0.00,WeatherDisplay:10.37,2013-05-01 03:10:00,
2013-04-30 19:15:00,34.1,29.2,29.96,NNE,15,0.0,0.0,82,0.00,CLR,,0.00,WeatherDisplay:10.37,2013-05-01 03:15:00,
2013-04-30 19:20:00,33.6,28.7,29.95,North,9,1.0,0.0,82,0.00,CLR,,0.00,WeatherDisplay:10.37,2013-05-01 03:20:00,
2013-04-30 19:25:00,33.2,28.9,29.95,NE,36,1.0,0.0,84,0.00,CLR,,0.00,WeatherDisplay:10.37,2013-05-01 03:25:00,
2013-04-30 19:30:00,32.7,28.4,29.95,NE,45,0.0,0.0,84,0.00,CLR,,0.00,WeatherDisplay:10.37,2013-05-01 03:30:00,
2013-04-30 19:35:00,32.5,28.2,29.95,NE,42,0.0,0.0,84,0.00,CLR,,0.00,WeatherDisplay:10.37,2013-05-01 03:35:00,
2013-04-30 19:40:00,32.2,27.9,29.95,NE,39,0.0,0.0,84,0.00,CLR,,0.00,WeatherDisplay:10.37,2013-05-01 03:40:00,
2013-04-30 19:45:00,32.2,27.9,29.95,NNE,26,0.0,0.0,84,0.00,CLR,,0.00,WeatherDisplay:10.37,2013-05-01 03:45:00,
2013-04-30 19:50:00,31.8,27.8,29.95,NNE,13,1.0,0.0,85,0.00,CLR,,0.00,WeatherDisplay:10.37,2013-05-01 03:50:00,
2013-04-30 19:55:00,31.6,27.4,29.95,North,2,0.0,0.0,84,0.00,CLR,,0.00,WeatherDisplay:10.37,2013-05-01 03:55:00,
2013-04-30 20:00:00,30.8,27.1,29.95,NNE,24,2.0,0.0,86,0.00,CLR,,0.00,WeatherDisplay:10.37,2013-05-01 04:00:00,
2013-04-30 20:05:00,30.4,26.7,29.95,NNE,20,1.0,0.0,86,0.00,CLR,,0.00,WeatherDisplay:10.37,2013-05-01 04:05:00,
2013-04-30 20:10:00,30.0,26.6,29.95,NNE,19,0.0,0.0,87,0.00,CLR,,0.00,WeatherDisplay:10.37,2013-05-01 04:10:00,
2013-04-30 20:15:00,30.0,26.6,29.95,NNE,21,0.0,0.0,87,0.00,CLR,,0.00,WeatherDisplay:10.37,2013-05-01 04:15:00,
2013-04-30 20:20:00,29.7,26.3,29.95,NNE,27,0.0,0.0,87,0.00,CLR,,0.00,WeatherDisplay:10.37,2013-05-01 04:20:00,
2013-04-30 20:25:00,29.5,26.1,29.95,NNE,31,0.0,0.0,87,0.00,CLR,,0.00,WeatherDisplay:10.37,2013-05-01 04:25:00,
2013-04-30 20:30:00,29.1,25.8,29.95,NE,36,0.0,0.0,87,0.00,CLR,,0.00,WeatherDisplay:10.37,2013-05-01 04:30:00,
2013-04-30 20:40:00,28.8,25.7,29.95,NE,43,0.0,0.0,88,0.00,CLR,,0.00,WeatherDisplay:10.37,2013-05-01 04:40:00,
2013-04-30 20:45:00,28.7,25.9,29.95,NE,44,2.0,0.0,89,0.00,CLR,,0.00,WeatherDisplay:10.37,2013-05-01 04:45:00,
2013-04-30 20:50:00,28.5,25.7,29.94,NE,37,0.0,0.0,89,0.00,CLR,,0.00,WeatherDisplay:10.37,2013-05-01 04:50:00,
2013-04-30 20:55:00,28.2,25.4,29.94,NE,34,2.0,0.0,89,0.00,CLR,,0.00,WeatherDisplay:10.37,2013-05-01 04:55:00,
2013-04-30 21:00:00,28.0,24.9,29.94,NNE,30,2.0,0.0,88,0.00,CLR,,0.00,WeatherDisplay:10.37,2013-05-01 05:00:00,
2013-04-30 21:10:00,27.5,24.4,29.94,NNE,30,2.0,0.0,88,0.00,CLR,,0.00,WeatherDisplay:10.37,2013-05-01 05:10:00,
2013-04-30 21:15:00,27.3,24.2,29.94,NNE,23,3.0,0.0,88,0.00,CLR,,0.00,WeatherDisplay:10.37,2013-05-01 05:15:00,
2013-04-30 21:25:00,26.8,24.0,29.94,NNE,31,2.0,0.0,89,0.00,CLR,,0.00,WeatherDisplay:10.37,2013-05-01 05:25:00,
2013-04-30 21:30:00,26.6,24.1,29.95,NNE,26,1.0,0.0,90,0.00,CLR,,0.00,WeatherDisplay:10.37,2013-05-01 05:30:00,
2013-04-30 21:40:00,26.4,23.9,29.94,NNE,15,0.0,0.0,90,0.00,CLR,,0.00,WeatherDisplay:10.37,2013-05-01 05:40:00,
2013-04-30 21:45:00,26.2,24.0,29.94,NNE,27,0.0,0.0,91,0.00,CLR,,0.00,WeatherDisplay:10.37,2013-05-01 05:45:00,
2013-04-30 21:55:00,25.9,23.9,29.94,NNE,29,2.0,0.0,92,0.00,CLR,,0.00,WeatherDisplay:10.37,2013-05-01 05:55:00,
2013-04-30 22:00:00,25.6,23.4,29.94,NNE,24,2.0,0.0,91,0.00,CLR,,0.00,WeatherDisplay:10.37,2013-05-01 06:00:00,
2013-04-30 22:10:00,25.3,22.8,29.94,NNE,32,3.0,0.0,90,0.00,CLR,,0.00,WeatherDisplay:10.37,2013-05-01 06:10:00,
2013-04-30 22:15:00,25.2,22.9,29.94,NNE,29,3.0,0.0,91,0.00,CLR,,0.00,WeatherDisplay:10.37,2013-05-01 06:15:00,
2013-04-30 22:25:00,24.9,22.7,29.94,NE,34,5.0,0.0,91,0.00,CLR,,0.00,WeatherDisplay:10.37,2013-05-01 06:25:00,
2013-04-30 22:30:00,24.7,22.5,29.94,NNE,26,3.0,0.0,91,0.00,CLR,,0.00,WeatherDisplay:10.37,2013-05-01 06:30:00,
2013-04-30 22:35:00,24.6,22.1,29.94,NNE,23,3.0,0.0,90,0.00,CLR,,0.00,WeatherDisplay:10.37,2013-05-01 06:35:00,
2013-04-30 22:40:00,24.4,21.9,29.93,NE,40,3.0,0.0,90,0.00,CLR,,0.00,WeatherDisplay:10.37,2013-05-01 06:40:00,
2013-04-30 22:45:00,24.4,21.9,29.94,NE,42,2.0,0.0,90,0.00,CLR,,0.00,WeatherDisplay:10.37,2013-05-01 06:45:00,
2013-04-30 22:50:00,24.4,22.2,29.94,NE,35,3.0,0.0,91,0.00,CLR,,0.00,WeatherDisplay:10.37,2013-05-01 06:50:00,
2013-04-30 22:55:00,24.3,22.0,29.94,NNE,27,3.0,0.0,91,0.00,CLR,,0.00,WeatherDisplay:10.37,2013-05-01 06:55:00,
2013-04-30 23:00:00,24.3,22.3,29.94,NNE,26,3.0,0.0,92,0.00,CLR,,0.00,WeatherDisplay:10.37,2013-05-01 07:00:00,
2013-04-30 23:10:00,24.1,21.3,29.93,NNE,31,3.0,0.0,89,0.00,CLR,,0.00,WeatherDisplay:10.37,2013-05-01 07:10:00,
2013-04-30 23:15:00,24.0,21.8,29.93,NNE,29,3.0,0.0,91,0.00,CLR,,0.00,WeatherDisplay:10.37,2013-05-01 07:15:00,
2013-04-30 23:20:00,23.9,21.9,29.93,NNE,21,2.0,0.0,92,0.00,CLR,,0.00,WeatherDisplay:10.37,2013-05-01 07:20:00,
2013-04-30 23:25:00,23.7,21.2,29.93,NNE,24,5.0,0.0,90,0.00,CLR,,0.00,WeatherDisplay:10.37,2013-05-01 07:25:00,
2013-04-30 23:30:00,23.7,21.5,29.93,NE,36,2.0,0.0,91,0.00,CLR,,0.00,WeatherDisplay:10.37,2013-05-01 07:30:00,
2013-04-30 23:40:00,23.4,20.9,29.93,NNE,30,3.0,0.0,90,0.00,CLR,,0.00,WeatherDisplay:10.37,2013-05-01 07:40:00,
2013-04-30 23:45:00,23.4,20.9,29.93,NE,36,3.0,0.0,90,0.00,CLR,,0.00,WeatherDisplay:10.37,2013-05-01 07:45:00,
2013-04-30 23:55:00,23.2,20.7,29.93,NNE,28,3.0,0.0,90,0.00,CLR,,0.00,WeatherDisplay:10.37,2013-05-01 07:55:00,